Time;durP1;ratioP1;P1;durP2;ratioP2;P2;SDS_P1;SDS_P2;PMS_P1;PMS_P2;Temp;Humidity;BMP_temperature;BMP_pressure;BME280_temperature;BME280_humidity;BME280_pressure;Samples;Min_cycle;Max_cycle;Signal;HPM_P1;HPM_P2
2023/12/17 00:01:25;;;;;;;13.10;7.18;;;10.10;99.90;;;;;;5045397;28;20037;-78
2023/12/17 00:03:51;;;;;;;16.13;7.18;;;10.10;99.90;;;;;;5012333;28;20041;-78
2023/12/17 00:06:17;;;;;;;13.00;6.18;;;10.10;99.90;;;;;;5026930;28;20053;-73
2023/12/17 00:08:43;;;;;;;17.48;6.65;;;10.10;99.90;;;;;;5047213;28;20041;-76
2023/12/17 00:11:10;;;;;;;12.30;6.50;;;10.10;99.90;;;;;;5048274;28;20067;-77
2023/12/17 00:13:36;;;;;;;13.23;6.45;;;10.10;99.90;;;;;;5047810;28;20053;-77
2023/12/17 00:16:05;;;;;;;11.15;6.28;;;10.10;99.90;;;;;;5041819;28;20084;-77
2023/12/17 00:18:32;;;;;;;11.43;6.63;;;10.10;99.90;;;;;;5044885;28;20126;-77
2023/12/17 00:20:58;;;;;;;14.85;6.38;;;10.10;99.90;;;;;;5048088;28;20768;-76
2023/12/17 00:23:23;;;;;;;13.38;6.55;;;10.10;99.90;;;;;;5043109;28;20061;-79
2023/12/17 00:25:49;;;;;;;11.93;5.93;;;10.10;99.90;;;;;;5050149;28;20106;-80
2023/12/17 00:28:15;;;;;;;13.93;6.45;;;10.10;99.90;;;;;;5028620;28;20092;-80
2023/12/17 00:30:41;;;;;;;14.02;6.20;;;10.10;99.90;;;;;;5067136;28;20511;-80
2023/12/17 00:33:06;;;;;;;12.02;6.57;;;10.10;99.90;;;;;;5048650;28;20037;-80
2023/12/17 00:35:32;;;;;;;13.43;5.97;;;10.10;99.90;;;;;;5049328;28;20120;-80
2023/12/17 00:37:58;;;;;;;12.73;5.97;;;10.10;99.90;;;;;;5052157;28;20044;-76
2023/12/17 00:40:24;;;;;;;13.80;7.78;;;10.10;99.90;;;;;;5047347;28;20055;-81
2023/12/17 00:42:50;;;;;;;15.98;7.25;;;10.10;99.90;;;;;;5045845;28;20049;-80
2023/12/17 00:45:16;;;;;;;12.02;6.93;;;10.10;99.90;;;;;;5042276;28;20044;-80
2023/12/17 00:47:41;;;;;;;11.20;6.53;;;10.10;99.90;;;;;;5047554;28;20041;-80
2023/12/17 00:50:07;;;;;;;13.38;7.15;;;10.10;99.90;;;;;;5050226;28;20041;-80
2023/12/17 00:52:33;;;;;;;12.95;6.43;;;10.10;99.90;;;;;;5050229;28;20399;-80
2023/12/17 00:54:59;;;;;;;13.20;6.80;;;10.20;99.90;;;;;;5050159;28;20053;-79
2023/12/17 00:57:25;;;;;;;20.88;7.05;;;10.10;99.90;;;;;;5051603;28;20376;-80
2023/12/17 00:59:51;;;;;;;9.75;5.43;;;10.10;99.90;;;;;;5047259;28;20037;-79
2023/12/17 01:02:17;;;;;;;15.48;6.13;;;10.10;99.90;;;;;;5032322;28;20041;-79
2023/12/17 01:04:42;;;;;;;10.60;6.15;;;10.10;99.90;;;;;;5041044;28;20427;-81
2023/12/17 01:07:08;;;;;;;8.48;5.50;;;10.10;99.90;;;;;;5050354;28;20124;-78
2023/12/17 01:09:34;;;;;;;10.55;5.57;;;10.10;99.90;;;;;;5049232;28;20048;-80
2023/12/17 01:12:02;;;;;;;9.15;5.22;;;10.10;99.90;;;;;;5053656;28;20049;-75
2023/12/17 01:14:34;;;;;;;8.93;5.60;;;10.20;99.90;;;;;;5047964;28;20049;-80
2023/12/17 01:17:01;;;;;;;14.00;5.55;;;10.20;99.90;;;;;;5046672;28;20053;-80
2023/12/17 01:19:27;;;;;;;11.07;6.13;;;10.20;99.90;;;;;;5050855;28;20499;-80
2023/12/17 01:21:53;;;;;;;9.57;6.15;;;10.20;99.90;;;;;;5045934;28;20044;-81
2023/12/17 01:24:19;;;;;;;10.38;6.35;;;10.20;99.90;;;;;;5018146;28;20484;-79
2023/12/17 01:26:44;;;;;;;11.10;6.63;;;10.20;99.90;;;;;;5043548;28;20080;-81
2023/12/17 01:29:10;;;;;;;11.00;6.13;;;10.20;99.90;;;;;;5049934;28;20044;-79
2023/12/17 01:31:36;;;;;;;20.98;7.03;;;10.20;99.90;;;;;;5054470;28;20083;-80
2023/12/17 01:34:02;;;;;;;12.82;5.97;;;10.20;99.90;;;;;;5069219;28;20445;-81
2023/12/17 01:36:28;;;;;;;12.13;7.25;;;10.20;99.90;;;;;;5052888;28;20579;-82
2023/12/17 01:38:54;;;;;;;13.05;6.68;;;10.20;99.90;;;;;;5056655;28;20128;-81
2023/12/17 01:41:19;;;;;;;12.60;6.68;;;10.20;99.90;;;;;;5054033;28;20045;-73
2023/12/17 01:43:45;;;;;;;11.63;6.43;;;10.20;99.90;;;;;;5053631;28;20048;-81
2023/12/17 01:46:11;;;;;;;11.48;6.32;;;10.20;99.90;;;;;;5053752;28;20053;-80
2023/12/17 01:48:37;;;;;;;15.15;6.85;;;10.20;99.90;;;;;;5053793;28;20067;-82
2023/12/17 01:51:03;;;;;;;14.52;7.07;;;10.20;99.90;;;;;;5054859;28;20124;-80
2023/12/17 01:53:29;;;;;;;11.77;6.18;;;10.20;99.90;;;;;;5054367;28;20508;-81
2023/12/17 01:55:55;;;;;;;14.27;6.63;;;10.20;99.90;;;;;;5053819;28;20041;-77
2023/12/17 01:58:21;;;;;;;11.90;6.57;;;10.20;99.90;;;;;;5054850;28;20132;-73
2023/12/17 02:00:51;;;;;;;13.90;6.63;;;10.20;99.90;;;;;;5054687;28;20033;-81
2023/12/17 02:03:16;;;;;;;15.63;7.22;;;10.20;99.90;;;;;;5041463;28;20052;-81
2023/12/17 02:05:45;;;;;;;11.73;6.55;;;10.20;99.90;;;;;;5042863;28;20197;-82
2023/12/17 02:08:11;;;;;;;12.50;6.90;;;10.20;99.90;;;;;;5041526;28;20057;-80
2023/12/17 02:10:38;;;;;;;15.77;7.00;;;10.20;99.90;;;;;;5053885;28;20162;-80
2023/12/17 02:13:03;;;;;;;11.55;6.95;;;10.20;99.90;;;;;;5054808;28;20116;-82
2023/12/17 02:15:29;;;;;;;13.38;6.72;;;10.20;99.90;;;;;;5051277;28;20120;-81
2023/12/17 02:17:55;;;;;;;13.55;6.22;;;10.20;99.90;;;;;;5044362;28;20397;-81
2023/12/17 02:20:20;;;;;;;13.90;6.55;;;10.20;99.90;;;;;;5049400;28;20116;-80
2023/12/17 02:22:53;;;;;;;12.82;6.60;;;10.20;99.90;;;;;;5053392;28;20103;-80
2023/12/17 02:25:19;;;;;;;17.70;6.60;;;10.30;99.90;;;;;;5052350;28;20049;-77
2023/12/17 02:27:44;;;;;;;11.30;6.75;;;10.20;99.90;;;;;;5050516;28;20682;-82
2023/12/17 02:30:10;;;;;;;10.45;6.28;;;10.30;99.90;;;;;;5045363;28;20094;-79
2023/12/17 02:32:36;;;;;;;15.27;6.97;;;10.30;99.90;;;;;;5053551;28;20419;-81
2023/12/17 02:35:02;;;;;;;12.35;6.50;;;10.30;99.90;;;;;;5054350;28;20049;-82
2023/12/17 02:37:28;;;;;;;19.50;6.90;;;10.30;99.90;;;;;;5048983;28;20044;-74
2023/12/17 02:39:54;;;;;;;12.50;6.45;;;10.20;99.90;;;;;;5054664;28;20095;-81
2023/12/17 02:42:21;;;;;;;11.52;5.88;;;10.30;99.90;;;;;;5053015;28;20045;-81
2023/12/17 02:44:47;;;;;;;10.82;6.30;;;10.30;99.90;;;;;;5036223;28;20518;-82
2023/12/17 02:47:13;;;;;;;12.57;6.43;;;10.20;99.90;;;;;;5032442;28;20037;-80
2023/12/17 02:49:40;;;;;;;10.27;5.97;;;10.30;99.90;;;;;;5051588;28;20048;-80
2023/12/17 02:52:06;;;;;;;11.38;6.55;;;10.20;99.90;;;;;;5053918;28;20041;-82
2023/12/17 02:54:32;;;;;;;7.80;5.00;;;10.30;99.90;;;;;;5052159;28;20507;-80
2023/12/17 02:56:57;;;;;;;9.93;5.95;;;10.30;99.90;;;;;;5053406;28;20139;-80
2023/12/17 02:59:23;;;;;;;11.18;5.65;;;10.30;99.90;;;;;;5047361;28;20090;-79
2023/12/17 03:01:50;;;;;;;10.77;5.93;;;10.30;99.90;;;;;;5035612;28;20303;-81
2023/12/17 03:04:17;;;;;;;13.68;6.35;;;10.30;99.90;;;;;;5047541;28;20045;-83
2023/12/17 03:06:43;;;;;;;12.50;6.00;;;10.20;99.90;;;;;;5036326;28;20128;-80
2023/12/17 03:09:10;;;;;;;11.35;5.65;;;10.30;99.90;;;;;;5043230;28;20452;-81
2023/12/17 03:11:36;;;;;;;8.88;4.68;;;10.20;99.90;;;;;;5052118;28;20037;-80
2023/12/17 03:14:02;;;;;;;9.70;4.95;;;10.30;99.90;;;;;;5050923;28;20120;-80
2023/12/17 03:16:29;;;;;;;11.85;4.65;;;10.30;99.90;;;;;;5053711;28;20124;-82
2023/12/17 03:18:55;;;;;;;9.63;4.75;;;10.20;99.90;;;;;;5048692;28;20566;-82
2023/12/17 03:21:23;;;;;;;7.57;4.68;;;10.30;99.90;;;;;;5043427;28;20045;-81
2023/12/17 03:23:50;;;;;;;12.38;5.40;;;10.30;99.90;;;;;;5052172;28;20503;-82
2023/12/17 03:26:16;;;;;;;11.63;5.43;;;10.20;99.90;;;;;;5038091;28;20045;-82
2023/12/17 03:28:41;;;;;;;13.18;5.45;;;10.20;99.90;;;;;;5034418;28;20120;-81
2023/12/17 03:31:07;;;;;;;9.68;5.13;;;10.20;99.90;;;;;;5043395;28;20125;-82
2023/12/17 03:33:33;;;;;;;10.00;4.95;;;10.30;99.90;;;;;;5053605;28;20545;-81
2023/12/17 03:35:58;;;;;;;13.25;5.50;;;10.20;99.90;;;;;;5047107;28;20049;-82
2023/12/17 03:38:24;;;;;;;10.65;4.95;;;10.10;99.90;;;;;;5010433;28;20052;-82
2023/12/17 03:40:50;;;;;;;12.43;4.65;;;10.20;99.90;;;;;;5043343;28;20114;-82
2023/12/17 03:43:16;;;;;;;13.68;5.28;;;10.20;99.90;;;;;;5035624;28;20049;-81
2023/12/17 03:45:42;;;;;;;8.27;4.57;;;10.20;99.90;;;;;;5026919;28;20037;-81
2023/12/17 03:48:08;;;;;;;11.23;4.45;;;10.20;99.90;;;;;;5035363;28;20519;-82
2023/12/17 03:50:33;;;;;;;14.20;5.10;;;10.20;99.90;;;;;;5052788;28;20396;-81
2023/12/17 03:52:59;;;;;;;14.15;5.30;;;10.20;99.90;;;;;;5051000;28;20041;-82
2023/12/17 03:55:24;;;;;;;10.18;4.78;;;10.20;99.90;;;;;;5047789;28;20049;-82
2023/12/17 03:57:50;;;;;;;10.63;4.75;;;10.20;99.90;;;;;;5038321;28;20049;-81
2023/12/17 04:00:16;;;;;;;9.00;4.60;;;10.20;99.90;;;;;;5028412;28;20046;-81
2023/12/17 04:02:42;;;;;;;14.38;5.18;;;10.20;99.90;;;;;;5050071;28;20037;-80
2023/12/17 04:05:08;;;;;;;15.00;5.63;;;10.20;99.90;;;;;;5048895;28;20048;-82
2023/12/17 04:07:34;;;;;;;12.65;5.15;;;10.20;99.90;;;;;;5051542;28;20079;-81
2023/12/17 04:10:01;;;;;;;9.02;5.20;;;10.10;99.90;;;;;;5034037;28;20503;-82
2023/12/17 04:12:27;;;;;;;11.27;5.00;;;10.20;99.90;;;;;;5050143;28;20048;-82
2023/12/17 04:14:53;;;;;;;10.93;5.53;;;10.20;99.90;;;;;;5047203;28;20075;-81
2023/12/17 04:17:19;;;;;;;9.02;4.90;;;10.20;99.90;;;;;;5050509;28;20124;-82
2023/12/17 04:19:45;;;;;;;10.35;5.32;;;10.20;99.90;;;;;;5050785;28;20080;-82
2023/12/17 04:22:10;;;;;;;11.05;5.82;;;10.20;99.90;;;;;;5048823;28;20037;-82
2023/12/17 04:24:36;;;;;;;14.07;5.60;;;10.20;99.90;;;;;;5050328;28;20399;-81
2023/12/17 04:27:02;;;;;;;10.82;5.93;;;10.10;99.90;;;;;;5051389;28;20102;-82
2023/12/17 04:29:27;;;;;;;11.10;5.32;;;10.60;99.90;;;;;;5038787;28;20079;-81
2023/12/17 04:31:53;;;;;;;10.98;5.50;;;10.20;99.90;;;;;;5050661;28;20531;-81
2023/12/17 04:34:19;;;;;;;14.05;5.50;;;10.20;99.90;;;;;;5042880;28;20102;-81
2023/12/17 04:36:44;;;;;;;11.32;5.43;;;10.20;99.90;;;;;;5051717;28;20040;-75
2023/12/17 04:39:10;;;;;;;13.23;6.03;;;10.20;99.90;;;;;;5050759;28;20098;-81
2023/12/17 04:41:37;;;;;;;12.88;5.00;;;10.20;99.90;;;;;;5047440;28;20045;-81
2023/12/17 04:44:03;;;;;;;11.32;5.60;;;10.20;99.90;;;;;;5038994;28;20500;-81
2023/12/17 04:46:29;;;;;;;10.63;5.22;;;10.10;99.90;;;;;;5037087;28;20041;-82
2023/12/17 04:48:55;;;;;;;9.82;5.55;;;10.10;99.90;;;;;;5033866;28;20049;-81
2023/12/17 04:51:22;;;;;;;12.88;5.97;;;10.10;99.90;;;;;;5050741;28;20045;-82
2023/12/17 04:53:51;;;;;;;8.63;5.07;;;10.10;99.90;;;;;;5042561;28;20373;-75
2023/12/17 04:56:21;;;;;;;14.30;5.97;;;10.10;99.90;;;;;;5049354;28;20143;-80
2023/12/17 04:58:47;;;;;;;15.70;5.88;;;10.10;99.90;;;;;;5052041;28;20468;-74
2023/12/17 05:01:12;;;;;;;13.23;5.38;;;10.10;99.90;;;;;;5050445;28;20083;-79
2023/12/17 05:03:38;;;;;;;14.65;6.03;;;10.10;99.90;;;;;;5049702;28;20051;-81
2023/12/17 05:06:05;;;;;;;12.00;6.15;;;10.10;99.90;;;;;;5050354;28;20055;-81
2023/12/17 05:08:30;;;;;;;11.48;6.38;;;10.10;99.90;;;;;;5055085;28;20447;-81
2023/12/17 05:10:56;;;;;;;13.38;6.13;;;10.00;99.90;;;;;;5035837;28;20176;-82
2023/12/17 05:13:22;;;;;;;15.73;6.78;;;10.00;99.90;;;;;;5048735;28;20042;-81
2023/12/17 05:15:48;;;;;;;13.95;7.03;;;10.00;99.90;;;;;;5053437;28;20098;-81
2023/12/17 05:18:14;;;;;;;11.50;7.35;;;9.50;99.90;;;;;;5054899;28;20063;-81
2023/12/17 05:20:40;;;;;;;17.02;7.00;;;10.00;99.90;;;;;;5055707;28;20037;-80
2023/12/17 05:23:08;;;;;;;13.43;7.20;;;10.00;99.90;;;;;;5029419;28;20057;-80
2023/12/17 05:25:34;;;;;;;14.27;6.63;;;10.00;99.90;;;;;;5042236;28;20100;-82
2023/12/17 05:27:59;;;;;;;9.80;6.18;;;10.00;99.90;;;;;;5046367;28;20104;-81
2023/12/17 05:30:25;;;;;;;11.20;6.10;;;10.00;99.90;;;;;;5054552;28;20098;-81
2023/12/17 05:32:51;;;;;;;12.90;6.15;;;9.90;99.90;;;;;;5053828;28;20120;-78
2023/12/17 05:35:17;;;;;;;12.82;6.35;;;9.90;99.90;;;;;;5049011;28;20045;-81
2023/12/17 05:37:42;;;;;;;13.63;5.90;;;9.90;99.90;;;;;;5052458;28;20037;-81
2023/12/17 05:40:08;;;;;;;14.02;6.70;;;9.90;99.90;;;;;;5028168;28;20057;-81
2023/12/17 05:42:35;;;;;;;11.80;6.03;;;9.90;99.90;;;;;;5044022;28;20061;-77
2023/12/17 05:45:01;;;;;;;12.80;6.85;;;9.90;99.90;;;;;;5028931;28;20049;-81
2023/12/17 05:47:27;;;;;;;18.13;7.13;;;9.90;99.90;;;;;;5055394;28;20049;-82
2023/12/17 05:49:52;;;;;;;14.32;6.57;;;9.90;99.90;;;;;;5055247;28;20060;-81
2023/12/17 05:52:18;;;;;;;15.93;6.93;;;9.80;99.90;;;;;;5052676;28;20084;-82
2023/12/17 05:54:44;;;;;;;14.95;7.47;;;9.90;99.90;;;;;;5053779;28;20060;-82
2023/12/17 05:57:10;;;;;;;13.48;7.25;;;9.80;99.90;;;;;;5052654;28;20047;-82
2023/12/17 05:59:36;;;;;;;13.57;7.07;;;9.80;99.90;;;;;;5054959;28;20032;-82
2023/12/17 06:02:01;;;;;;;12.18;6.63;;;9.80;99.90;;;;;;5053582;28;20049;-82
2023/12/17 06:04:27;;;;;;;14.23;7.43;;;9.80;99.90;;;;;;5042628;28;20571;-77
2023/12/17 06:06:55;;;;;;;11.30;5.90;;;9.80;99.90;;;;;;5043286;28;20047;-82
2023/12/17 06:09:22;;;;;;;11.10;6.90;;;9.80;99.90;;;;;;5036801;28;20076;-80
2023/12/17 06:11:48;;;;;;;14.75;6.50;;;9.80;99.90;;;;;;5054701;28;20080;-83
2023/12/17 06:14:14;;;;;;;14.40;6.30;;;9.80;99.90;;;;;;5049823;28;20056;-81
2023/12/17 06:16:41;;;;;;;13.77;6.43;;;9.80;99.90;;;;;;5053529;28;20037;-82
2023/12/17 06:19:07;;;;;;;13.20;6.30;;;9.80;99.90;;;;;;5050607;28;20049;-81
2023/12/17 06:21:33;;;;;;;15.45;6.45;;;9.80;99.90;;;;;;5053306;28;20182;-81
2023/12/17 06:23:59;;;;;;;11.50;6.35;;;9.80;99.90;;;;;;5053512;28;20063;-74
2023/12/17 06:26:25;;;;;;;19.00;7.20;;;9.80;99.90;;;;;;5053746;28;20049;-81
2023/12/17 06:28:51;;;;;;;15.70;7.50;;;9.80;99.90;;;;;;5035330;28;20056;-81
2023/12/17 06:31:17;;;;;;;16.70;7.32;;;9.80;99.90;;;;;;5054341;28;20045;-81
2023/12/17 06:33:42;;;;;;;12.32;7.65;;;9.80;99.90;;;;;;5043321;28;20492;-82
2023/12/17 06:36:08;;;;;;;16.00;8.07;;;9.80;99.90;;;;;;5053523;28;20044;-81
2023/12/17 06:38:34;;;;;;;14.38;7.80;;;9.80;99.90;;;;;;5052549;28;20056;-76
2023/12/17 06:41:00;;;;;;;17.33;8.48;;;9.80;99.90;;;;;;5036929;28;20102;-81
2023/12/17 06:43:26;;;;;;;15.98;9.02;;;9.80;99.90;;;;;;5052136;28;20500;-82
2023/12/17 06:45:52;;;;;;;15.75;8.73;;;9.80;99.90;;;;;;5036509;28;20541;-82
2023/12/17 06:48:18;;;;;;;18.58;10.55;;;9.80;99.90;;;;;;5051886;28;20468;-80
2023/12/17 06:50:44;;;;;;;14.25;8.82;;;9.80;99.90;;;;;;5052752;28;20045;-81
2023/12/17 06:53:15;;;;;;;18.45;10.25;;;9.80;99.90;;;;;;5033941;28;20053;-82
2023/12/17 06:55:41;;;;;;;12.05;8.98;;;9.80;99.90;;;;;;5037323;28;20500;-81
2023/12/17 06:58:07;;;;;;;20.73;9.75;;;9.80;99.90;;;;;;5050282;28;20372;-81
2023/12/17 07:00:34;;;;;;;21.38;10.27;;;9.80;99.90;;;;;;5053745;28;20047;-81
2023/12/17 07:03:00;;;;;;;17.10;9.90;;;9.80;99.90;;;;;;5047275;28;20056;-81
2023/12/17 07:05:26;;;;;;;17.92;9.98;;;9.80;99.90;;;;;;5052692;28;20488;-81
2023/12/17 07:07:51;;;;;;;13.73;8.27;;;9.80;99.90;;;;;;5052754;28;20049;-80
2023/12/17 07:10:17;;;;;;;16.40;9.15;;;9.80;99.90;;;;;;5047188;28;20033;-80
2023/12/17 07:12:43;;;;;;;12.65;8.18;;;9.70;99.90;;;;;;5053096;28;20046;-82
2023/12/17 07:15:09;;;;;;;16.48;6.75;;;9.80;99.90;;;;;;5053202;28;20044;-80
2023/12/17 07:17:35;;;;;;;16.48;7.07;;;9.70;99.90;;;;;;5051930;28;20499;-80
2023/12/17 07:20:01;;;;;;;13.90;6.28;;;9.70;99.90;;;;;;5046142;28;20049;-81
2023/12/17 07:22:27;;;;;;;19.95;6.75;;;9.70;99.90;;;;;;5049993;28;20732;-81
2023/12/17 07:24:52;;;;;;;12.60;6.32;;;9.70;99.90;;;;;;5052306;28;20139;-80
2023/12/17 07:27:18;;;;;;;16.40;6.80;;;9.70;99.90;;;;;;5038652;28;20047;-79
2023/12/17 07:29:43;;;;;;;12.93;6.40;;;9.70;99.90;;;;;;5049700;28;20060;-81
2023/12/17 07:32:09;;;;;;;20.70;6.25;;;9.80;99.90;;;;;;5045889;28;20476;-75
2023/12/17 07:34:35;;;;;;;12.93;6.13;;;9.80;99.90;;;;;;5051947;28;20051;-81
2023/12/17 07:37:01;;;;;;;14.40;6.47;;;9.70;99.90;;;;;;5040213;28;20148;-82
2023/12/17 07:39:27;;;;;;;15.90;6.47;;;9.70;99.90;;;;;;5039342;28;20132;-81
2023/12/17 07:41:53;;;;;;;16.17;7.18;;;9.70;99.90;;;;;;5068734;28;20395;-82
2023/12/17 07:44:18;;;;;;;16.15;7.10;;;9.70;99.90;;;;;;5051363;28;20118;-81
2023/12/17 07:46:44;;;;;;;16.30;6.45;;;9.70;99.90;;;;;;5034226;28;20041;-81
2023/12/17 07:49:10;;;;;;;16.38;6.63;;;9.70;99.90;;;;;;5047494;28;20484;-81
2023/12/17 07:51:38;;;;;;;18.58;6.85;;;9.70;99.90;;;;;;5049649;28;20049;-81
2023/12/17 07:54:04;;;;;;;19.55;7.20;;;9.70;99.90;;;;;;5043875;28;20053;-81
2023/12/17 07:56:31;;;;;;;14.50;7.10;;;9.70;99.90;;;;;;5048166;28;20139;-81
2023/12/17 07:58:56;;;;;;;14.32;6.88;;;9.70;99.90;;;;;;5030256;28;20515;-82
2023/12/17 08:01:30;;;;;;;20.17;7.65;;;9.70;99.90;;;;;;5048471;28;20045;-81
2023/12/17 08:03:59;;;;;;;16.23;7.13;;;9.70;99.90;;;;;;5064639;28;20045;-81
2023/12/17 08:06:25;;;;;;;15.13;7.50;;;9.70;99.90;;;;;;5034375;28;20040;-81
2023/12/17 08:08:54;;;;;;;17.65;7.63;;;9.70;99.90;;;;;;5051094;28;20380;-82
2023/12/17 08:11:21;;;;;;;17.00;7.75;;;9.60;99.90;;;;;;5042906;28;20048;-80
2023/12/17 08:13:46;;;;;;;10.80;7.05;;;9.60;99.90;;;;;;5048999;28;20061;-81
2023/12/17 08:16:12;;;;;;;13.75;6.32;;;9.60;99.90;;;;;;5051155;28;20489;-80
2023/12/17 08:18:38;;;;;;;12.68;6.57;;;9.70;99.90;;;;;;5047828;28;20060;-78
2023/12/17 08:21:04;;;;;;;14.57;6.97;;;9.70;99.90;;;;;;5038025;28;20472;-78
2023/12/17 08:23:30;;;;;;;17.73;7.07;;;9.60;99.90;;;;;;5051157;28;20106;-80
2023/12/17 08:25:56;;;;;;;14.73;6.72;;;9.70;99.90;;;;;;5050268;28;20486;-79
2023/12/17 08:28:22;;;;;;;18.20;7.45;;;9.70;99.90;;;;;;5052011;28;20506;-80
2023/12/17 08:30:49;;;;;;;13.35;7.50;;;9.70;99.90;;;;;;5049866;28;20040;-81
2023/12/17 08:33:15;;;;;;;18.35;6.85;;;9.60;99.90;;;;;;5050340;28;20056;-80
2023/12/17 08:35:43;;;;;;;11.98;7.35;;;9.60;99.90;;;;;;5053014;28;20049;-80
2023/12/17 08:38:09;;;;;;;13.80;8.00;;;9.60;99.90;;;;;;5053930;28;20115;-80
2023/12/17 08:40:39;;;;;;;17.10;8.50;;;9.60;99.90;;;;;;5050909;28;20154;-82
2023/12/17 08:43:06;;;;;;;16.77;7.60;;;9.60;99.90;;;;;;5050465;28;20452;-80
2023/12/17 08:45:32;;;;;;;19.20;8.43;;;9.60;99.90;;;;;;5051481;28;20391;-79
2023/12/17 08:47:59;;;;;;;16.38;8.82;;;9.60;99.90;;;;;;5052290;28;20060;-81
2023/12/17 08:50:25;;;;;;;16.48;9.02;;;9.60;99.90;;;;;;5047724;28;20076;-80
2023/12/17 08:52:51;;;;;;;21.20;10.35;;;9.60;99.90;;;;;;5016688;28;20068;-81
2023/12/17 08:55:17;;;;;;;19.88;10.13;;;9.60;99.90;;;;;;5049448;28;20152;-77
2023/12/17 08:57:43;;;;;;;19.77;10.68;;;9.60;99.90;;;;;;5051419;28;20120;-81
2023/12/17 09:00:09;;;;;;;18.30;10.30;;;9.60;99.90;;;;;;5051998;28;20120;-78
2023/12/17 09:02:35;;;;;;;21.50;11.85;;;9.60;99.90;;;;;;5042915;28;20041;-80
2023/12/17 09:05:02;;;;;;;18.83;11.75;;;9.60;99.90;;;;;;5050097;28;20106;-81
2023/12/17 09:07:28;;;;;;;23.35;11.82;;;9.70;99.90;;;;;;5051241;28;20047;-78
2023/12/17 09:09:53;;;;;;;20.33;12.40;;;9.60;99.90;;;;;;5050484;28;20880;-78
2023/12/17 09:12:19;;;;;;;23.83;13.13;;;9.70;99.90;;;;;;5046564;28;20063;-79
2023/12/17 09:14:45;;;;;;;29.20;13.68;;;9.70;99.90;;;;;;5050030;28;20135;-78
2023/12/17 09:17:11;;;;;;;25.77;12.65;;;9.70;99.90;;;;;;5033428;28;20067;-78
2023/12/17 09:19:36;;;;;;;25.60;13.00;;;9.70;99.90;;;;;;5033645;28;20045;-79
2023/12/17 09:22:02;;;;;;;23.67;13.23;;;9.70;99.90;;;;;;5050232;28;20420;-77
2023/12/17 09:24:29;;;;;;;24.42;13.57;;;9.70;99.90;;;;;;5048674;28;20049;-75
2023/12/17 09:26:55;;;;;;;23.42;13.95;;;9.70;99.90;;;;;;5051707;28;20465;-78
2023/12/17 09:29:20;;;;;;;22.52;12.18;;;9.70;99.90;;;;;;5050188;28;20151;-77
2023/12/17 09:31:47;;;;;;;22.02;12.40;;;9.70;99.90;;;;;;5029874;28;20077;-80
2023/12/17 09:34:16;;;;;;;17.02;11.90;;;9.80;99.90;;;;;;5048430;28;20147;-78
2023/12/17 09:36:41;;;;;;;23.40;12.20;;;9.80;99.90;;;;;;5049441;28;20040;-78
2023/12/17 09:39:08;;;;;;;24.48;12.55;;;9.80;99.90;;;;;;5049846;28;20044;-75
2023/12/17 09:41:34;;;;;;;24.73;12.60;;;9.70;99.90;;;;;;5050809;28;20441;-77
2023/12/17 09:44:00;;;;;;;22.08;11.00;;;9.80;99.90;;;;;;5049938;28;20041;-77
2023/12/17 09:46:27;;;;;;;25.08;11.00;;;9.80;99.90;;;;;;5039276;28;20099;-81
2023/12/17 09:48:52;;;;;;;22.50;11.02;;;9.80;99.90;;;;;;5041901;28;20081;-79
2023/12/17 09:51:18;;;;;;;23.38;11.00;;;9.80;99.90;;;;;;5035066;28;20076;-76
2023/12/17 09:53:44;;;;;;;23.88;10.43;;;9.80;99.90;;;;;;5044584;28;20060;-78
2023/12/17 09:56:12;;;;;;;26.40;11.00;;;9.90;99.90;;;;;;5040691;28;20396;-79
2023/12/17 09:58:38;;;;;;;18.83;9.38;;;9.90;99.90;;;;;;5050615;28;20032;-78
2023/12/17 10:01:04;;;;;;;20.27;8.88;;;9.90;99.90;;;;;;5050543;28;20056;-77
2023/12/17 10:03:30;;;;;;;20.40;8.93;;;9.90;99.90;;;;;;5035757;28;20049;-75
2023/12/17 10:05:56;;;;;;;17.90;8.05;;;9.90;99.90;;;;;;5050402;28;20053;-76
2023/12/17 10:08:22;;;;;;;24.60;8.50;;;10.00;99.90;;;;;;5052496;28;20045;-76
2023/12/17 10:10:49;;;;;;;20.33;9.07;;;10.00;99.90;;;;;;5036031;28;20048;-75
2023/12/17 10:13:19;;;;;;;22.20;9.07;;;10.00;99.90;;;;;;5053403;28;20103;-77
2023/12/17 10:15:49;;;;;;;19.55;7.68;;;10.00;99.90;;;;;;5046924;28;20049;-77
2023/12/17 10:18:16;;;;;;;19.58;7.97;;;10.00;99.90;;;;;;5011832;28;20076;-77
2023/12/17 10:20:44;;;;;;;23.27;8.77;;;10.00;99.90;;;;;;5053675;28;20044;-76
2023/12/17 10:23:09;;;;;;;14.55;7.05;;;10.00;99.90;;;;;;5036894;28;20527;-77
2023/12/17 10:25:35;;;;;;;23.35;8.95;;;10.00;99.90;;;;;;5046663;28;20049;-75
2023/12/17 10:28:01;;;;;;;20.38;7.38;;;10.00;99.90;;;;;;5036562;28;20049;-79
2023/12/17 10:30:29;;;;;;;15.40;7.53;;;10.10;99.90;;;;;;5052958;28;20052;-76
2023/12/17 10:32:56;;;;;;;18.65;7.13;;;10.10;99.90;;;;;;5046439;28;20642;-79
2023/12/17 10:35:23;;;;;;;15.52;6.80;;;10.00;99.90;;;;;;5046015;28;20041;-79
2023/12/17 10:38:08;;;;;;;17.00;7.95;;;10.10;99.90;;;;;;5069159;28;20049;-81
2023/12/17 10:40:35;;;;;;;19.00;8.27;;;10.10;99.90;;;;;;5038493;28;20049;-79
2023/12/17 10:43:04;;;;;;;19.17;9.68;;;10.10;99.90;;;;;;5040293;28;20063;-77
2023/12/17 10:45:31;;;;;;;20.98;10.05;;;10.10;99.90;;;;;;5043723;28;20052;-77
2023/12/17 10:47:58;;;;;;;22.80;12.07;;;10.10;99.90;;;;;;5048994;28;20522;-77
2023/12/17 10:50:26;;;;;;;23.00;12.73;;;10.10;99.90;;;;;;5035451;28;20049;-78
2023/12/17 10:52:52;;;;;;;27.33;12.45;;;10.10;99.90;;;;;;5046930;28;20045;-79
2023/12/17 10:55:19;;;;;;;23.25;12.75;;;10.00;99.90;;;;;;5043350;28;20079;-79
2023/12/17 10:57:49;;;;;;;24.20;14.55;;;10.10;99.90;;;;;;5044135;28;20049;-79
2023/12/17 11:00:20;;;;;;;32.13;14.55;;;10.10;99.90;;;;;;5048556;28;20080;-78
2023/12/17 11:02:50;;;;;;;27.05;14.35;;;10.10;99.90;;;;;;5048774;28;20349;-77
2023/12/17 11:05:16;;;;;;;24.58;14.27;;;10.10;99.90;;;;;;5050495;28;20053;-79
2023/12/17 11:07:42;;;;;;;26.75;15.63;;;10.20;99.90;;;;;;5039741;28;20099;-78
2023/12/17 11:10:12;;;;;;;28.15;16.38;;;10.10;99.90;;;;;;5047388;28;20115;-79
2023/12/17 11:12:44;;;;;;;30.75;17.20;;;10.10;99.90;;;;;;5052585;28;20064;-82
2023/12/17 11:15:12;;;;;;;26.75;15.25;;;10.20;99.90;;;;;;5048065;28;20059;-80
2023/12/17 11:17:40;;;;;;;28.48;17.55;;;10.20;99.90;;;;;;5041129;28;20049;-79
2023/12/17 11:20:07;;;;;;;30.30;16.85;;;10.20;99.90;;;;;;5037677;28;20045;-78
2023/12/17 11:22:37;;;;;;;29.42;16.90;;;10.20;99.90;;;;;;5043681;28;20044;-78
2023/12/17 11:25:04;;;;;;;23.63;16.73;;;10.20;99.90;;;;;;5048766;28;20093;-79
2023/12/17 11:27:34;;;;;;;27.23;16.42;;;10.20;99.90;;;;;;5048061;28;20063;-79
2023/12/17 11:30:00;;;;;;;26.27;15.50;;;10.20;99.90;;;;;;5052345;28;20092;-82
2023/12/17 11:32:28;;;;;;;24.50;15.00;;;10.20;99.90;;;;;;5053037;28;20048;-78
2023/12/17 11:34:56;;;;;;;29.17;15.13;;;10.30;99.90;;;;;;5052977;28;20045;-80
2023/12/17 11:37:24;;;;;;;24.95;16.02;;;10.30;99.90;;;;;;5053523;28;20168;-79
2023/12/17 11:39:52;;;;;;;22.15;13.93;;;10.30;99.90;;;;;;5051094;28;20120;-81
2023/12/17 11:42:19;;;;;;;25.92;14.27;;;10.30;99.90;;;;;;5051730;28;20119;-81
2023/12/17 11:44:54;;;;;;;19.20;12.35;;;10.30;99.90;;;;;;5052077;28;20437;-74
2023/12/17 11:47:25;;;;;;;;;;;10.30;99.90;;;;;;5053529;28;20131;-78
2023/12/17 11:50:00;;;;;;;22.00;14.15;;;10.30;99.90;;;;;;5046979;28;20379;-80
2023/12/17 11:52:26;;;;;;;19.42;12.75;;;10.30;99.90;;;;;;5051751;28;20048;-79
2023/12/17 11:54:59;;;;;;;20.52;14.68;;;10.30;99.90;;;;;;5033217;28;20186;-77
2023/12/17 11:57:26;;;;;;;24.58;13.32;;;10.30;99.90;;;;;;5050675;28;20077;-78
2023/12/17 11:59:53;;;;;;;23.55;13.85;;;10.30;99.90;;;;;;5025171;28;20071;-80
2023/12/17 12:02:21;;;;;;;20.77;13.40;;;10.30;99.90;;;;;;5032973;28;20050;-80
2023/12/17 12:04:47;;;;;;;19.92;13.60;;;10.20;99.90;;;;;;5037538;28;20045;-77
2023/12/17 12:07:19;;;;;;;21.85;12.73;;;10.30;99.90;;;;;;5050491;28;20125;-78
2023/12/17 12:09:48;;;;;;;18.00;13.35;;;10.20;99.90;;;;;;5051155;28;20041;-79
2023/12/17 12:12:26;;;;;;;21.10;12.88;;;10.30;99.90;;;;;;5045204;28;20048;-78
2023/12/17 12:14:52;;;;;;;19.52;12.90;;;10.30;99.90;;;;;;5050034;28;20135;-78
2023/12/17 12:17:40;;;;;;;18.90;13.63;;;10.20;99.90;;;;;;5045190;28;20124;-77
2023/12/17 12:20:08;;;;;;;19.55;12.40;;;10.20;99.90;;;;;;5031369;28;20048;-77
2023/12/17 12:22:35;;;;;;;21.15;13.32;;;10.20;99.90;;;;;;5041191;28;20049;-77
2023/12/17 12:25:02;;;;;;;24.20;12.88;;;10.30;99.90;;;;;;5040831;28;20080;-75
2023/12/17 12:27:27;;;;;;;16.95;11.82;;;10.20;99.90;;;;;;5048881;28;20056;-75
2023/12/17 12:29:55;;;;;;;22.65;13.43;;;10.20;99.90;;;;;;5051660;28;20551;-75
2023/12/17 12:32:31;;;;;;;20.58;13.57;;;10.20;99.90;;;;;;5048565;28;20037;-83
2023/12/17 12:35:00;;;;;;;22.45;14.20;;;10.20;99.90;;;;;;5048534;28;20053;-83